METAR Data
IDs: Format: Raw Decoded Include TAF

Data at: 0309 UTC 19 Oct 2021

PANI 190256Z AUTO 13005KT 10SM CLR M02/M05 A2960 RMK AO2 SLP016 T10171050 56026 FZRANO
PANI 190156Z AUTO 12006KT 10SM CLR M01/M04 A2962 RMK AO2 SLP022 T10111044 FZRANO
PANI 190056Z AUTO VRB04KT 10SM CLR M02/M05 A2964 RMK AO2 SLP032 T10171050 FZRANO
PANI 182356Z AUTO 10004KT 10SM CLR M02/M05 A2968 RMK AO2 SLP042 T10171050 11017 21078 58028 FZRANO
PANI 182336Z AUTO 08004KT 10SM FEW008 M02/M05 A2969 RMK AO2 FZRANO
PANI 182256Z AUTO 12005KT 10SM CLR M03/M06 A2970 RMK AO2 SLP052 T10331056 FZRANO
PANI 182212Z AUTO 12007KT 10SM SCT007 M04/M06 A2971 RMK AO2 FZRANO
PANI 182156Z AUTO 12005KT 10SM OVC005 M04/M06 A2973 RMK AO2 SLP061 T10441061 FZRANO
PANI 182056Z AUTO 16005KT 10SM OVC005 M05/M07 A2976 RMK AO2 SLP070 T10501067 58009 FZRANO
PANI 182030Z AUTO 13006KT 10SM OVC005 M06/M07 A2976 RMK AO2 FZRANO
PANI 181956Z AUTO 14004KT 10SM OVC007 M06/M07 A2978 RMK AO2 SLP077 T10611072 FZRANO
PANI 181923Z AUTO 13004KT 10SM BKN009 M07/M08 A2979 RMK AO2 CIG 005V011 FZRANO
PANI 181856Z AUTO 13005KT 10SM CLR M07/M08 A2979 RMK AO2 SLP080 T10671078 FZRANO
PANI 181756Z AUTO 13004KT 6SM BR CLR M08/M09 A2979 RMK AO2 SLP080 T10781089 11039 21083 58004 FZRANO
PANI 181656Z AUTO 12004KT 10SM CLR M07/M08 A2980 RMK AO2 SLP084 T10721083 FZRANO
PANI 181556Z AUTO 00000KT 10SM CLR M07/M08 A2979 RMK AO2 SLP082 T10671078 FZRANO
PANI 181456Z AUTO 00000KT 10SM CLR M06/M07 A2980 RMK AO2 SLP084 T10561072 53009 FZRANO
PANI 181356Z AUTO 00000KT 10SM CLR M06/M07 A2979 RMK AO2 SLP080 T10561072 FZRANO
PANI 181256Z AUTO 00000KT 10SM CLR M04/M07 A2978 RMK AO2 SLP077 T10441067 FZRANO
PANI 181156Z AUTO VRB03KT 10SM CLR M04/M06 A2977 RMK AO2 SLP075 T10441061 11011 21044 51019 FZRANO
PANI 181056Z AUTO 02006KT 10SM CLR M04/M06 A2976 RMK AO2 SLP070 T10391056 FZRANO
PANI 180956Z AUTO VRB06KT 10SM CLR M03/M06 A2974 RMK AO2 SLP064 T10331056 FZRANO
PANI 180856Z AUTO 36007KT 320V040 10SM CLR M03/M06 A2972 RMK AO2 SLP056 T10331056 53025 FZRANO
PANI 180756Z AUTO 01009G17KT 310V040 10SM CLR M02/M05 A2968 RMK AO2 SLP044 T10221050 400281022 FZRANO
PANI 180656Z AUTO VRB04KT 10SM CLR M02/M05 A2966 RMK AO2 SLP036 T10171050 FZRANO
PANI 180556Z AUTO VRB04KT 10SM CLR M01/M04 A2964 RMK AO2 SLP031 T10111044 10011 21011 53035 FZRANO
PANI 180456Z AUTO VRB05KT 10SM FEW110 M01/M04 A2960 RMK AO2 SLP018 T10111044 FZRANO
PANI 180356Z AUTO 01010G17KT 330V050 10SM BKN120 M01/M04 A2957 RMK AO2 SLP007 T10061039 FZRANO
PANI 180256Z AUTO 03010G21KT 10SM OVC075 00/M04 A2954 RMK AO2 SLP996 T00001039 53033 FZRANO
PANI 180156Z AUTO 01011G21KT 330V030 10SM OVC100 00/M04 A2950 RMK AO2 SLP983 T00001044 FZRANO
PANI 180056Z AUTO 36007KT 300V040 10SM FEW055 BKN070 01/M04 A2947 RMK AO2 SLP974 T00061044 FZRANO
PANI 172356Z AUTO 03010G15KT 350V080 10SM BKN070 01/M06 A2944 RMK AO2 SLP963 T00111056 10011 21006 51020 FZRANO
PANI 172256Z AUTO 04009G21KT 350V090 10SM FEW050 01/M06 A2942 RMK AO2 SLP955 T00111056 FZRANO
PANI 172156Z AUTO 01008G15KT 10SM OVC047 01/M05 A2941 RMK AO2 SLP951 T00061050 FZRANO
PANI 172056Z AUTO 02011G19KT 350V050 10SM OVC050 01/M06 A2938 RMK AO2 SLP942 T00111056 53029 FZRANO
PANI 171956Z AUTO 03010G22KT 360V060 10SM OVC070 01/M06 A2935 RMK AO2 SLP933 T00061056 FZRANO
PANI 171856Z AUTO 03009G17KT 340V060 10SM OVC070 00/M06 A2932 RMK AO2 SLP922 T00001061 FZRANO
PANI 171756Z AUTO 04008G17KT 360V130 10SM OVC039 M01/M06 A2929 RMK AO2 SLP913 60000 T10061056 10028 21006 53016 FZRANO
PANI 171656Z AUTO 02007KT 310V060 10SM OVC037 00/M06 A2927 RMK AO2 SLP905 T00001056 FZRANO
PANI 171556Z AUTO VRB06KT 10SM OVC039 02/M05 A2925 RMK AO2 RAE13 SLP898 P0000 T00171050 FZRANO